createdAt,value
2022-08-03T00:00:26.490Z,72.44
2022-08-03T00:02:53.379Z,72.25
2022-08-03T00:05:20.008Z,72.11
2022-08-03T00:07:46.572Z,72.96
2022-08-03T00:10:15.354Z,71.72
2022-08-03T00:12:41.957Z,71.64
2022-08-03T00:15:11.071Z,72.29
2022-08-03T00:17:52.882Z,71.82
2022-08-03T00:20:22.129Z,72.15
2022-08-03T00:22:49.512Z,72.62
2022-08-03T00:25:16.633Z,71.94
2022-08-03T00:27:43.130Z,73.13
2022-08-03T00:30:10.494Z,73.66
2022-08-03T00:32:37.010Z,73.32
2022-08-03T00:35:08.036Z,74.18
2022-08-03T00:37:41.379Z,74.27
2022-08-03T00:40:13.553Z,73.91
2022-08-03T00:43:07.578Z,73.97
2022-08-03T00:45:37.546Z,74.40
2022-08-03T00:48:05.669Z,74.19
2022-08-03T00:50:35.320Z,73.93
2022-08-03T00:53:05.074Z,74.67
2022-08-03T00:55:31.811Z,74.07
2022-08-03T00:58:01.432Z,74.48
2022-08-03T01:00:28.337Z,74.61
2022-08-03T01:02:54.848Z,75.05
2022-08-03T01:05:21.936Z,75.36
2022-08-03T01:08:19.644Z,75.97
2022-08-03T01:11:05.528Z,76.36
2022-08-03T01:14:03.625Z,76.54
2022-08-03T01:17:05.214Z,76.22
2022-08-03T01:19:53.936Z,76.29
2022-08-03T01:22:37.065Z,76.74
2022-08-03T01:25:38.859Z,77.57
2022-08-03T01:28:39.309Z,77.87
2022-08-03T01:31:09.137Z,77.00
2022-08-03T01:33:39.820Z,77.32
2022-08-03T01:36:08.041Z,77.46
2022-08-03T01:38:40.896Z,77.41
2022-08-03T01:41:17.484Z,77.93
2022-08-03T01:44:27.652Z,78.68
2022-08-03T01:46:38.472Z,79.62
2022-08-03T01:49:09.146Z,80.29
2022-08-03T01:51:57.850Z,79.95
2022-08-03T01:54:27.179Z,80.19
2022-08-03T01:56:56.837Z,80.11
2022-08-03T01:59:26.434Z,81.06
2022-08-03T02:02:16.076Z,81.11
2022-08-03T02:04:43.687Z,81.47
2022-08-03T02:07:11.695Z,81.23
2022-08-03T02:09:40.907Z,82.00
2022-08-03T02:12:10.359Z,81.68
2022-08-03T02:14:39.311Z,80.82
2022-08-03T02:17:09.970Z,81.11
2022-08-03T02:19:37.636Z,80.77
2022-08-03T02:22:08.590Z,80.34
2022-08-03T02:24:35.181Z,81.02
2022-08-03T02:27:05.803Z,81.77
2022-08-03T02:29:39.628Z,82.14
2022-08-03T02:32:10.555Z,82.77
2022-08-03T02:34:38.909Z,83.50
2022-08-03T02:37:08.187Z,83.77
2022-08-03T02:39:36.760Z,83.31
2022-08-03T02:42:04.004Z,83.06
2022-08-03T02:44:33.585Z,82.71
2022-08-03T02:47:08.097Z,82.86
2022-08-03T02:49:50.661Z,82.89
2022-08-03T02:52:20.158Z,83.03
2022-08-03T02:54:49.154Z,83.02
2022-08-03T02:57:19.289Z,83.16
2022-08-03T02:59:47.136Z,82.74
2022-08-03T03:02:15.855Z,82.53
2022-08-03T03:04:56.207Z,82.51
2022-08-03T03:07:31.438Z,83.16
2022-08-03T03:10:08.804Z,82.57
2022-08-03T03:12:38.450Z,82.42
2022-08-03T03:15:06.592Z,82.81
2022-08-03T03:17:34.871Z,82.20
2022-08-03T03:20:02.602Z,82.05
2022-08-03T03:22:30.960Z,82.69
2022-08-03T03:24:57.907Z,83.07
2022-08-03T03:27:25.499Z,82.59
2022-08-03T03:29:54.173Z,82.61
2022-08-03T03:32:20.770Z,82.18
2022-08-03T03:34:48.165Z,82.99
2022-08-03T03:37:14.746Z,82.82
2022-08-03T03:39:41.414Z,82.82
2022-08-03T03:42:07.897Z,82.05
2022-08-03T03:44:34.435Z,82.89
2022-08-03T03:47:01.047Z,83.20
2022-08-03T03:49:27.977Z,83.48
2022-08-03T03:51:55.618Z,82.51
2022-08-03T03:54:22.323Z,82.36
2022-08-03T03:56:52.302Z,82.60
2022-08-03T03:59:19.018Z,82.37
2022-08-03T04:01:45.906Z,82.84
2022-08-03T04:04:31.321Z,81.59
2022-08-03T04:07:16.690Z,81.87
2022-08-03T04:10:14.252Z,81.67
2022-08-03T04:12:50.437Z,81.71
2022-08-03T04:15:21.912Z,81.77
2022-08-03T04:17:50.471Z,81.47
2022-08-03T04:20:20.179Z,81.24
2022-08-03T04:22:49.762Z,81.53
2022-08-03T04:25:19.505Z,81.09
2022-08-03T04:28:30.110Z,81.66
2022-08-03T04:30:37.660Z,81.08
2022-08-03T04:33:05.098Z,81.46
2022-08-03T04:36:00.865Z,81.25
2022-08-03T04:38:23.612Z,81.70
2022-08-03T04:40:50.900Z,80.69
2022-08-03T04:43:19.667Z,80.80
2022-08-03T04:45:49.537Z,81.36
2022-08-03T04:48:16.480Z,80.98
2022-08-03T04:50:43.981Z,80.63
2022-08-03T04:53:10.790Z,79.96
2022-08-03T04:55:37.318Z,79.87
2022-08-03T04:58:04.450Z,78.93
2022-08-03T05:00:31.366Z,77.91
2022-08-03T05:02:58.153Z,77.56
2022-08-03T05:05:24.992Z,77.10
2022-08-03T05:07:51.706Z,77.02
2022-08-03T05:10:19.957Z,76.01
2022-08-03T05:12:48.420Z,75.05
2022-08-03T05:15:15.813Z,75.57
2022-08-03T05:17:42.866Z,75.69
2022-08-03T05:20:10.447Z,75.67
2022-08-03T05:22:37.038Z,74.52
2022-08-03T05:25:04.182Z,73.68
2022-08-03T05:27:30.723Z,73.30
2022-08-03T05:30:32.281Z,72.39
2022-08-03T05:32:43.900Z,72.49
2022-08-03T05:35:57.579Z,71.79
2022-08-03T05:37:57.194Z,71.02
2022-08-03T05:40:23.842Z,70.78
2022-08-03T05:42:50.409Z,69.54
2022-08-03T05:45:19.986Z,69.59
2022-08-03T05:47:46.618Z,68.28
2022-08-03T05:50:13.979Z,68.26
2022-08-03T05:52:41.496Z,67.82
2022-08-03T05:55:09.312Z,66.04
2022-08-03T05:57:36.090Z,65.25
2022-08-03T06:00:05.925Z,64.84
2022-08-03T06:02:32.704Z,64.85
2022-08-03T06:04:59.261Z,63.43
2022-08-03T06:07:25.727Z,63.96
2022-08-03T06:10:34.256Z,63.93
2022-08-03T06:12:41.265Z,62.30
2022-08-03T06:15:11.589Z,60.96
2022-08-03T06:17:45.691Z,60.97
2022-08-03T06:20:19.574Z,60.05
2022-08-03T06:22:50.723Z,59.15
2022-08-03T06:25:19.417Z,59.06
2022-08-03T06:27:48.013Z,58.95
2022-08-03T06:30:19.281Z,58.39
2022-08-03T06:32:51.626Z,57.15
2022-08-03T06:35:19.353Z,56.91
2022-08-03T06:37:48.406Z,56.37
2022-08-03T06:40:24.447Z,56.33
2022-08-03T06:42:51.419Z,56.63
2022-08-03T06:45:17.992Z,56.26
2022-08-03T06:50:29.044Z,54.13
2022-08-03T06:52:55.887Z,53.45
2022-08-03T06:55:22.450Z,53.65
2022-08-03T06:57:48.879Z,53.10
2022-08-03T07:00:15.661Z,52.19
2022-08-03T07:02:42.272Z,52.57
2022-08-03T07:05:09.866Z,51.60
2022-08-03T07:07:37.010Z,51.07
2022-08-03T07:10:05.337Z,50.62
2022-08-03T07:12:33.863Z,50.22
2022-08-03T07:15:02.836Z,50.73
2022-08-03T07:17:31.587Z,50.09
2022-08-03T07:19:58.548Z,49.60
2022-08-03T07:22:26.429Z,49.76
2022-08-03T07:24:53.174Z,48.82
2022-08-03T07:27:19.675Z,48.32
2022-08-03T07:29:46.115Z,49.04
2022-08-03T07:32:12.696Z,49.34
2022-08-03T07:34:39.220Z,47.71
2022-08-03T07:37:05.814Z,48.33
2022-08-03T07:39:32.354Z,47.10
2022-08-03T07:41:58.873Z,47.23
2022-08-03T07:44:25.390Z,47.06
2022-08-03T07:46:52.075Z,46.61
2022-08-03T07:49:18.800Z,46.70
2022-08-03T07:51:45.360Z,46.87
2022-08-03T07:54:11.919Z,47.05
2022-08-03T07:56:39.280Z,46.42
2022-08-03T07:59:05.927Z,44.80
2022-08-03T08:01:35.979Z,43.54
2022-08-03T08:04:02.532Z,44.80
2022-08-03T08:06:29.160Z,43.17
2022-08-03T08:08:59.457Z,42.61
2022-08-03T08:11:25.920Z,43.39
2022-08-03T08:13:52.430Z,43.42
2022-08-03T08:16:18.954Z,41.81
2022-08-03T08:18:45.469Z,41.15
2022-08-03T08:21:11.990Z,41.35
2022-08-03T08:23:44.173Z,41.19
2022-08-03T08:26:13.075Z,39.88
2022-08-03T08:28:39.825Z,39.81
2022-08-03T08:31:06.711Z,38.71
2022-08-03T08:34:02.457Z,36.66
2022-08-03T08:36:21.214Z,33.99
2022-08-03T08:38:47.831Z,33.23
2022-08-03T08:41:15.720Z,31.92
2022-08-03T08:43:42.708Z,31.51
2022-08-03T08:46:23.212Z,30.20
2022-08-03T08:48:51.467Z,28.98
2022-08-03T08:51:21.154Z,27.66
2022-08-03T08:53:53.730Z,28.46
2022-08-03T08:56:22.882Z,27.22
2022-08-03T08:58:53.005Z,26.61
2022-08-03T09:01:20.437Z,26.36
2022-08-03T09:03:47.675Z,26.80
2022-08-03T09:06:15.203Z,25.96
2022-08-03T09:08:41.790Z,26.52
2022-08-03T09:11:08.635Z,24.58
2022-08-03T09:13:38.919Z,24.47
2022-08-03T09:18:40.109Z,23.07
2022-08-03T09:21:34.835Z,21.75
2022-08-03T09:24:05.764Z,22.73
2022-08-03T09:26:35.158Z,22.04
2022-08-03T09:29:13.847Z,21.76
2022-08-03T09:31:46.367Z,21.70
2022-08-03T09:34:15.493Z,22.73
2022-08-03T09:36:47.961Z,23.15
2022-08-03T09:39:17.276Z,23.63
2022-08-03T09:41:49.007Z,22.86
2022-08-03T09:44:24.965Z,21.60
2022-08-03T09:46:56.886Z,21.31
2022-08-03T09:49:24.365Z,21.44
2022-08-03T09:52:33.933Z,20.96
2022-08-03T09:54:38.421Z,21.14
2022-08-03T09:57:05.161Z,21.17
2022-08-03T09:59:33.589Z,20.39
2022-08-03T10:02:01.933Z,19.93
2022-08-03T10:04:28.759Z,19.40
2022-08-03T10:07:02.880Z,19.28
2022-08-03T10:09:29.522Z,20.03
2022-08-03T10:11:56.759Z,20.26
2022-08-03T10:14:23.675Z,20.17
2022-08-03T10:16:50.498Z,18.96
2022-08-03T10:19:17.433Z,17.33
2022-08-03T10:21:51.376Z,17.98
2022-08-03T10:24:24.267Z,18.90
2022-08-03T10:26:51.704Z,19.53
2022-08-03T10:29:24.783Z,19.47
2022-08-03T10:31:58.126Z,19.30
2022-08-03T10:34:34.544Z,19.88
2022-08-03T10:37:08.451Z,18.14
2022-08-03T10:39:36.074Z,18.40
2022-08-03T10:42:05.614Z,17.97
2022-08-03T10:44:42.383Z,19.01
2022-08-03T10:47:10.527Z,18.85
2022-08-03T10:49:38.125Z,18.38
2022-08-03T10:52:11.387Z,18.28
2022-08-03T10:55:18.854Z,18.44
2022-08-03T10:57:50.082Z,18.30
2022-08-03T11:00:24.680Z,17.13
2022-08-03T11:03:08.868Z,17.13
2022-08-03T11:05:39.043Z,100.00
2022-08-03T11:08:28.573Z,100.00
2022-08-03T11:11:19.739Z,16.37
2022-08-03T11:14:05.844Z,16.59
2022-08-03T11:16:45.553Z,16.08
2022-08-03T11:19:19.843Z,17.03
2022-08-03T11:21:50.478Z,15.79
2022-08-03T11:24:37.405Z,15.72
2022-08-03T11:27:24.114Z,16.14
2022-08-03T11:30:00.772Z,16.17
2022-08-03T11:32:48.434Z,15.32
2022-08-03T11:35:24.698Z,15.60
2022-08-03T11:38:01.452Z,15.75
2022-08-03T11:40:33.166Z,16.78
2022-08-03T11:42:59.657Z,16.44
2022-08-03T11:45:26.470Z,16.63
2022-08-03T11:47:55.521Z,16.12
2022-08-03T11:50:22.535Z,16.21
2022-08-03T11:52:50.202Z,16.06
2022-08-03T11:55:20.552Z,15.93
2022-08-03T11:59:02.731Z,15.83
2022-08-03T12:00:34.406Z,15.75
2022-08-03T12:03:14.235Z,15.75
2022-08-03T12:05:51.075Z,16.16
2022-08-03T12:08:27.828Z,15.72
2022-08-03T12:10:56.849Z,15.45
2022-08-03T12:14:28.932Z,16.56
2022-08-03T12:16:19.764Z,16.62
2022-08-03T12:19:03.247Z,16.31
2022-08-03T12:21:30.856Z,16.29
2022-08-03T12:24:00.313Z,15.71
2022-08-03T12:26:28.256Z,15.09
2022-08-03T12:28:55.096Z,14.10
2022-08-03T12:31:21.572Z,14.25
2022-08-03T12:34:00.212Z,13.62
2022-08-03T12:36:30.217Z,14.19
2022-08-03T12:38:59.035Z,13.36
2022-08-03T12:41:34.066Z,14.36
2022-08-03T12:44:05.381Z,14.48
2022-08-03T12:46:37.265Z,14.20
2022-08-03T12:52:19.142Z,14.03
2022-08-03T12:55:00.330Z,14.24
2022-08-03T12:57:41.475Z,14.39
2022-08-03T13:00:21.202Z,14.27
2022-08-03T13:05:54.285Z,14.05
2022-08-03T13:08:31.237Z,14.80
2022-08-03T13:10:58.200Z,14.92
2022-08-03T13:13:40.081Z,14.30
2022-08-03T13:16:06.974Z,13.95
2022-08-03T13:21:30.267Z,14.19
2022-08-03T13:26:57.715Z,15.18
2022-08-03T13:29:24.528Z,15.49
2022-08-03T13:31:55.879Z,15.32
2022-08-03T13:35:12.904Z,15.34
2022-08-03T13:37:47.767Z,16.22
2022-08-03T13:40:36.737Z,16.29
2022-08-03T13:43:28.148Z,15.72
2022-08-03T13:46:06.032Z,15.26
2022-08-03T13:55:04.051Z,14.35
2022-08-03T13:58:49.988Z,14.59
2022-08-03T14:02:13.865Z,15.05
2022-08-03T14:04:40.537Z,14.59
2022-08-03T14:07:07.283Z,14.70
2022-08-03T14:09:36.432Z,15.55
2022-08-03T14:12:08.032Z,16.16
2022-08-03T14:14:36.982Z,16.34
2022-08-03T14:17:04.113Z,17.08
2022-08-03T14:19:30.743Z,17.33
2022-08-03T14:23:01.335Z,18.60
2022-08-03T14:24:59.508Z,19.31
2022-08-03T14:28:11.614Z,20.07
2022-08-03T14:30:41.059Z,20.26
2022-08-03T14:33:10.193Z,20.69
2022-08-03T14:50:28.751Z,21.44
2022-08-03T14:51:14.063Z,20.73
2022-08-03T14:54:29.430Z,21.60
2022-08-03T15:00:05.866Z,21.71
2022-08-03T15:18:01.287Z,22.95
2022-08-03T15:20:42.451Z,22.52
2022-08-03T15:23:10.187Z,22.67
2022-08-03T15:26:29.034Z,23.00
2022-08-03T15:28:23.362Z,23.02
2022-08-03T15:30:52.484Z,23.00
2022-08-03T15:33:19.347Z,22.67
2022-08-03T15:35:47.325Z,22.42
2022-08-03T15:38:13.837Z,23.14
2022-08-03T15:40:40.508Z,23.64
2022-08-03T15:43:07.229Z,23.48
2022-08-03T15:45:36.174Z,23.18
2022-08-03T15:48:03.498Z,23.22
2022-08-03T15:50:30.200Z,23.60
2022-08-03T15:52:56.976Z,23.83
2022-08-03T15:55:23.718Z,22.87
2022-08-03T15:59:10.982Z,23.16
2022-08-03T16:00:40.448Z,23.38
2022-08-03T16:03:07.004Z,24.10
2022-08-03T16:05:33.806Z,23.80
2022-08-03T16:08:03.779Z,23.30
2022-08-03T16:10:36.160Z,24.10
2022-08-03T16:13:02.964Z,24.47
2022-08-03T16:15:29.686Z,24.20
2022-08-03T16:18:08.929Z,23.65
2022-08-03T16:20:35.969Z,23.92
2022-08-03T16:23:11.072Z,23.30
2022-08-03T16:25:49.334Z,22.87
2022-08-03T16:28:24.474Z,23.33
2022-08-03T16:33:42.825Z,23.82
2022-08-03T16:36:14.370Z,25.15
2022-08-03T16:38:45.011Z,25.26
2022-08-03T16:41:13.356Z,23.73
2022-08-03T16:43:42.399Z,23.12
2022-08-03T16:46:08.886Z,23.04
2022-08-03T16:48:35.471Z,23.50
2022-08-03T16:51:03.007Z,24.33
2022-08-03T16:53:33.085Z,25.10
2022-08-03T16:56:00.554Z,26.01
2022-08-03T16:58:41.815Z,25.08
2022-08-03T17:01:24.019Z,25.12
2022-08-03T17:04:04.695Z,25.00
2022-08-03T17:06:37.710Z,26.32
2022-08-03T17:09:10.258Z,27.05
2022-08-03T17:11:43.855Z,26.18
2022-08-03T17:14:12.430Z,25.43
2022-08-03T17:16:39.220Z,25.79
2022-08-03T17:19:23.220Z,25.66
2022-08-03T17:22:24.058Z,25.98
2022-08-03T17:24:52.672Z,26.70
2022-08-03T17:28:48.091Z,25.80
2022-08-03T17:30:18.913Z,26.41
2022-08-03T17:32:56.930Z,27.31
2022-08-03T17:35:34.392Z,26.76
2022-08-03T17:38:06.588Z,26.43
2022-08-03T17:40:34.542Z,27.51
2022-08-03T17:44:13.140Z,27.69
2022-08-03T17:45:54.979Z,27.93
2022-08-03T17:48:24.845Z,28.18
2022-08-03T17:50:59.809Z,27.57
2022-08-03T17:53:33.392Z,28.89
2022-08-03T17:56:44.508Z,27.26
2022-08-03T17:59:51.497Z,28.43
2022-08-03T18:02:59.173Z,28.29
2022-08-03T18:06:10.615Z,28.08
2022-08-03T18:08:28.403Z,29.04
2022-08-03T18:11:22.651Z,28.90
2022-08-03T18:14:01.412Z,30.20
2022-08-03T18:16:39.134Z,30.75
2022-08-03T18:19:09.559Z,29.71
2022-08-03T18:22:03.479Z,30.06
2022-08-03T18:24:31.167Z,30.96
2022-08-03T18:27:02.351Z,30.74
2022-08-03T18:29:30.638Z,30.84
2022-08-03T18:32:04.265Z,31.75
2022-08-03T18:34:34.588Z,31.42
2022-08-03T18:37:08.027Z,33.02
2022-08-03T18:39:39.156Z,33.52
2022-08-03T18:42:19.055Z,34.38
2022-08-03T18:44:54.403Z,34.53
2022-08-03T18:47:55.822Z,34.37
2022-08-03T18:50:49.745Z,34.48
2022-08-03T18:54:02.975Z,34.36
2022-08-03T18:56:31.014Z,33.91
2022-08-03T18:59:07.163Z,34.69
2022-08-03T19:02:00.132Z,35.76
2022-08-03T19:04:34.245Z,36.79
2022-08-03T19:07:07.958Z,36.31
2022-08-03T19:09:47.081Z,36.47
2022-08-03T19:12:30.646Z,34.20
2022-08-03T19:15:05.953Z,36.34
2022-08-03T19:17:53.223Z,36.02
2022-08-03T19:20:37.907Z,36.85
2022-08-03T19:23:04.486Z,36.58
2022-08-03T19:25:40.618Z,36.34
2022-08-03T19:28:09.054Z,37.26
2022-08-03T19:30:38.813Z,37.29
2022-08-03T19:33:14.010Z,37.64
2022-08-03T19:35:51.951Z,38.17
2022-08-03T19:38:28.502Z,38.23
2022-08-03T19:41:03.046Z,39.64
2022-08-03T19:43:49.572Z,39.86
2022-08-03T19:46:30.533Z,39.55
2022-08-03T19:49:15.038Z,39.81
2022-08-03T19:52:01.924Z,39.02
2022-08-03T19:54:39.637Z,40.25
2022-08-03T19:57:18.625Z,39.87
2022-08-03T19:59:49.955Z,39.49
2022-08-03T20:02:26.579Z,41.11
2022-08-03T20:04:55.947Z,42.24
2022-08-03T20:07:23.008Z,42.64
2022-08-03T20:09:54.569Z,43.19
2022-08-03T20:12:27.573Z,42.87
2022-08-03T20:14:57.434Z,43.36
2022-08-03T20:17:55.606Z,43.40
2022-08-03T20:20:11.100Z,43.01
2022-08-03T20:22:43.312Z,43.92
2022-08-03T20:25:13.129Z,43.97
2022-08-03T20:30:38.467Z,45.02
2022-08-03T20:33:09.209Z,44.56
2022-08-03T20:35:35.798Z,44.88
2022-08-03T20:38:03.325Z,44.40
2022-08-03T20:40:29.966Z,45.31
2022-08-03T20:42:56.649Z,45.33
2022-08-03T20:45:59.579Z,46.05
2022-08-03T20:48:10.300Z,45.46
2022-08-03T20:50:39.025Z,45.92
2022-08-03T20:53:07.773Z,45.79
2022-08-03T20:55:47.472Z,46.08
2022-08-03T20:58:25.746Z,46.23
2022-08-03T21:00:53.495Z,47.06
2022-08-03T21:03:20.217Z,47.37
2022-08-03T21:05:51.898Z,48.09
2022-08-03T21:08:22.409Z,48.21
2022-08-03T21:10:50.061Z,48.45
2022-08-03T21:13:12.501Z,44.24
2022-08-03T21:13:23.450Z,48.93
2022-08-03T21:16:06.563Z,49.27
2022-08-03T21:18:49.195Z,48.96
2022-08-03T21:21:18.482Z,49.64
2022-08-03T21:23:49.918Z,49.57
2022-08-03T21:26:22.499Z,49.88
2022-08-03T21:28:50.825Z,49.65
2022-08-03T21:31:25.577Z,50.24
2022-08-03T21:34:04.975Z,50.68
2022-08-03T21:36:34.443Z,50.37
2022-08-03T21:39:02.759Z,50.48
2022-08-03T21:41:32.239Z,51.30
2022-08-03T21:44:00.280Z,51.18
2022-08-03T21:46:30.797Z,51.85
2022-08-03T21:50:06.719Z,51.54
2022-08-03T21:51:50.497Z,51.58
2022-08-03T21:54:21.287Z,52.07
2022-08-03T21:56:51.064Z,52.02
2022-08-03T21:59:19.979Z,52.18
2022-08-03T22:01:55.328Z,52.90
2022-08-03T22:04:50.801Z,52.50
2022-08-03T22:07:12.455Z,52.54
2022-08-03T22:09:39.162Z,52.76
2022-08-03T22:12:06.359Z,53.27
2022-08-03T22:14:34.756Z,53.73
2022-08-03T22:17:07.220Z,54.11
2022-08-03T22:19:34.645Z,53.66
2022-08-03T22:22:05.962Z,54.21
2022-08-03T22:24:35.981Z,54.29
2022-08-03T22:27:21.962Z,54.08
2022-08-03T22:29:50.176Z,54.33
2022-08-03T22:32:16.802Z,54.26
2022-08-03T22:34:46.107Z,54.50
2022-08-03T22:37:16.431Z,55.01
2022-08-03T22:39:44.022Z,55.37
2022-08-03T22:42:11.378Z,55.90
2022-08-03T22:44:37.899Z,56.53
2022-08-03T22:47:05.355Z,56.50
2022-08-03T22:49:32.633Z,56.98
2022-08-03T22:51:59.452Z,56.55
2022-08-03T22:54:26.087Z,57.11
2022-08-03T22:56:52.726Z,57.18
2022-08-03T22:59:39.141Z,57.21
2022-08-03T23:02:21.213Z,57.20
2022-08-03T23:04:53.120Z,57.16
2022-08-03T23:07:27.591Z,56.94
2022-08-03T23:09:56.388Z,57.61
2022-08-03T23:12:23.848Z,57.96
2022-08-03T23:14:56.179Z,58.33
2022-08-03T23:17:24.230Z,58.48
2022-08-03T23:19:53.780Z,58.58
2022-08-03T23:22:30.328Z,58.92
2022-08-03T23:24:58.726Z,58.67
2022-08-03T23:27:27.480Z,58.81
2022-08-03T23:29:54.346Z,59.17
2022-08-03T23:32:21.233Z,59.10
2022-08-03T23:35:07.764Z,59.81
2022-08-03T23:38:03.992Z,59.85
2022-08-03T23:40:25.003Z,59.81
2022-08-03T23:42:52.131Z,59.98
2022-08-03T23:45:20.022Z,60.11
2022-08-03T23:47:48.338Z,60.50
2022-08-03T23:50:15.826Z,60.63
2022-08-03T23:53:18.125Z,60.80
2022-08-03T23:56:03.427Z,61.16
2022-08-03T23:58:32.848Z,61.05
